sensor_id;sensor_type;location;lat;lon;timestamp;P1;durP1;ratioP1;P2;durP2;ratioP2
4986;SDS011;12674;51.500;7.552;2023-06-26T00:01:04;6.78;;;5.97;;
4986;SDS011;12674;51.500;7.552;2023-06-26T00:03:07;13.90;;;5.30;;
4986;SDS011;12674;51.500;7.552;2023-06-26T00:05:10;8.50;;;6.10;;
4986;SDS011;12674;51.500;7.552;2023-06-26T00:07:14;7.18;;;5.82;;
4986;SDS011;12674;51.500;7.552;2023-06-26T00:09:17;6.28;;;5.68;;
4986;SDS011;12674;51.500;7.552;2023-06-26T00:11:20;9.50;;;5.80;;
4986;SDS011;12674;51.500;7.552;2023-06-26T00:13:25;8.00;;;6.05;;
4986;SDS011;12674;51.500;7.552;2023-06-26T00:15:28;6.03;;;5.43;;
4986;SDS011;12674;51.500;7.552;2023-06-26T00:17:33;6.97;;;6.10;;
4986;SDS011;12674;51.500;7.552;2023-06-26T00:19:38;7.30;;;6.00;;
4986;SDS011;12674;51.500;7.552;2023-06-26T00:21:41;13.35;;;6.07;;
4986;SDS011;12674;51.500;7.552;2023-06-26T00:23:49;6.30;;;5.35;;
4986;SDS011;12674;51.500;7.552;2023-06-26T00:25:52;7.25;;;6.55;;
4986;SDS011;12674;51.500;7.552;2023-06-26T00:27:55;5.85;;;5.00;;
4986;SDS011;12674;51.500;7.552;2023-06-26T00:29:59;6.72;;;5.80;;
4986;SDS011;12674;51.500;7.552;2023-06-26T00:32:02;5.72;;;5.13;;
4986;SDS011;12674;51.500;7.552;2023-06-26T00:34:07;9.27;;;5.20;;
4986;SDS011;12674;51.500;7.552;2023-06-26T00:36:10;5.63;;;5.10;;
4986;SDS011;12674;51.500;7.552;2023-06-26T00:38:13;7.00;;;5.72;;
4986;SDS011;12674;51.500;7.552;2023-06-26T00:40:17;8.38;;;5.57;;
4986;SDS011;12674;51.500;7.552;2023-06-26T00:42:20;6.70;;;5.88;;
4986;SDS011;12674;51.500;7.552;2023-06-26T00:44:23;7.35;;;5.43;;
4986;SDS011;12674;51.500;7.552;2023-06-26T00:46:28;8.45;;;5.40;;
4986;SDS011;12674;51.500;7.552;2023-06-26T00:48:31;6.72;;;5.45;;
4986;SDS011;12674;51.500;7.552;2023-06-26T00:50:34;5.40;;;4.82;;
4986;SDS011;12674;51.500;7.552;2023-06-26T00:52:38;5.93;;;4.65;;
4986;SDS011;12674;51.500;7.552;2023-06-26T00:54:41;14.90;;;5.18;;
4986;SDS011;12674;51.500;7.552;2023-06-26T00:56:44;5.57;;;4.60;;
4986;SDS011;12674;51.500;7.552;2023-06-26T00:58:48;7.25;;;5.05;;
4986;SDS011;12674;51.500;7.552;2023-06-26T01:00:52;10.07;;;5.22;;
4986;SDS011;12674;51.500;7.552;2023-06-26T01:02:56;6.43;;;4.85;;
4986;SDS011;12674;51.500;7.552;2023-06-26T01:05:01;5.53;;;5.03;;
4986;SDS011;12674;51.500;7.552;2023-06-26T01:07:09;8.70;;;5.75;;
4986;SDS011;12674;51.500;7.552;2023-06-26T01:09:12;7.55;;;5.30;;
4986;SDS011;12674;51.500;7.552;2023-06-26T01:11:16;8.80;;;5.70;;
4986;SDS011;12674;51.500;7.552;2023-06-26T01:13:21;6.25;;;5.47;;
4986;SDS011;12674;51.500;7.552;2023-06-26T01:15:26;5.35;;;4.85;;
4986;SDS011;12674;51.500;7.552;2023-06-26T01:17:29;7.85;;;5.15;;
4986;SDS011;12674;51.500;7.552;2023-06-26T01:19:34;6.28;;;5.20;;
4986;SDS011;12674;51.500;7.552;2023-06-26T01:21:37;8.48;;;5.05;;
4986;SDS011;12674;51.500;7.552;2023-06-26T01:23:48;9.15;;;5.32;;
4986;SDS011;12674;51.500;7.552;2023-06-26T01:26:07;6.15;;;5.53;;
4986;SDS011;12674;51.500;7.552;2023-06-26T01:28:15;7.72;;;5.03;;
4986;SDS011;12674;51.500;7.552;2023-06-26T01:30:19;5.53;;;4.90;;
4986;SDS011;12674;51.500;7.552;2023-06-26T01:32:22;9.98;;;5.03;;
4986;SDS011;12674;51.500;7.552;2023-06-26T01:34:27;8.27;;;5.63;;
4986;SDS011;12674;51.500;7.552;2023-06-26T01:36:30;6.50;;;5.30;;
4986;SDS011;12674;51.500;7.552;2023-06-26T01:38:34;9.35;;;4.85;;
4986;SDS011;12674;51.500;7.552;2023-06-26T01:40:37;5.80;;;5.00;;
4986;SDS011;12674;51.500;7.552;2023-06-26T01:42:42;5.28;;;4.78;;
4986;SDS011;12674;51.500;7.552;2023-06-26T01:44:45;8.10;;;5.15;;
4986;SDS011;12674;51.500;7.552;2023-06-26T01:46:52;6.38;;;4.90;;
4986;SDS011;12674;51.500;7.552;2023-06-26T01:49:01;7.88;;;5.05;;
4986;SDS011;12674;51.500;7.552;2023-06-26T01:51:10;9.48;;;5.50;;
4986;SDS011;12674;51.500;7.552;2023-06-26T01:53:16;7.15;;;5.07;;
4986;SDS011;12674;51.500;7.552;2023-06-26T01:55:23;9.13;;;5.35;;
4986;SDS011;12674;51.500;7.552;2023-06-26T01:57:31;5.40;;;4.88;;
4986;SDS011;12674;51.500;7.552;2023-06-26T01:59:35;5.60;;;4.93;;
4986;SDS011;12674;51.500;7.552;2023-06-26T02:01:39;5.55;;;4.93;;
4986;SDS011;12674;51.500;7.552;2023-06-26T02:03:42;7.78;;;4.97;;
4986;SDS011;12674;51.500;7.552;2023-06-26T02:05:45;5.40;;;4.90;;
4986;SDS011;12674;51.500;7.552;2023-06-26T02:07:48;5.82;;;4.90;;
4986;SDS011;12674;51.500;7.552;2023-06-26T02:09:52;13.13;;;5.28;;
4986;SDS011;12674;51.500;7.552;2023-06-26T02:11:55;6.65;;;5.13;;
4986;SDS011;12674;51.500;7.552;2023-06-26T02:13:58;7.78;;;5.00;;
4986;SDS011;12674;51.500;7.552;2023-06-26T02:16:02;7.28;;;5.78;;
4986;SDS011;12674;51.500;7.552;2023-06-26T02:18:05;7.95;;;5.10;;
4986;SDS011;12674;51.500;7.552;2023-06-26T02:20:08;6.82;;;5.00;;
4986;SDS011;12674;51.500;7.552;2023-06-26T02:22:12;8.07;;;5.15;;
4986;SDS011;12674;51.500;7.552;2023-06-26T02:24:15;7.35;;;5.15;;
4986;SDS011;12674;51.500;7.552;2023-06-26T02:26:18;6.18;;;4.72;;
4986;SDS011;12674;51.500;7.552;2023-06-26T02:28:22;6.05;;;5.35;;
4986;SDS011;12674;51.500;7.552;2023-06-26T02:30:25;9.57;;;4.90;;
4986;SDS011;12674;51.500;7.552;2023-06-26T02:32:29;8.57;;;5.28;;
4986;SDS011;12674;51.500;7.552;2023-06-26T02:34:47;5.97;;;5.07;;
4986;SDS011;12674;51.500;7.552;2023-06-26T02:36:56;7.18;;;5.30;;
4986;SDS011;12674;51.500;7.552;2023-06-26T02:39:00;12.13;;;5.35;;
4986;SDS011;12674;51.500;7.552;2023-06-26T02:41:04;13.18;;;5.28;;
4986;SDS011;12674;51.500;7.552;2023-06-26T02:43:10;4.97;;;4.20;;
4986;SDS011;12674;51.500;7.552;2023-06-26T02:45:21;5.80;;;5.20;;
4986;SDS011;12674;51.500;7.552;2023-06-26T02:54:03;5.68;;;4.80;;
4986;SDS011;12674;51.500;7.552;2023-06-26T02:56:08;8.13;;;5.20;;
4986;SDS011;12674;51.500;7.552;2023-06-26T02:58:13;7.40;;;5.65;;
4986;SDS011;12674;51.500;7.552;2023-06-26T03:00:16;7.40;;;5.28;;
4986;SDS011;12674;51.500;7.552;2023-06-26T03:02:23;6.97;;;5.63;;
4986;SDS011;12674;51.500;7.552;2023-06-26T03:04:27;7.93;;;6.05;;
4986;SDS011;12674;51.500;7.552;2023-06-26T03:06:31;5.00;;;4.45;;
4986;SDS011;12674;51.500;7.552;2023-06-26T03:09:02;7.60;;;4.85;;
4986;SDS011;12674;51.500;7.552;2023-06-26T03:11:05;8.13;;;5.45;;
4986;SDS011;12674;51.500;7.552;2023-06-26T03:13:09;5.28;;;4.78;;
4986;SDS011;12674;51.500;7.552;2023-06-26T03:15:13;6.13;;;5.18;;
4986;SDS011;12674;51.500;7.552;2023-06-26T03:17:16;6.10;;;5.38;;
4986;SDS011;12674;51.500;7.552;2023-06-26T03:19:21;6.60;;;5.50;;
4986;SDS011;12674;51.500;7.552;2023-06-26T03:21:55;5.97;;;4.65;;
4986;SDS011;12674;51.500;7.552;2023-06-26T03:25:03;5.97;;;5.18;;
4986;SDS011;12674;51.500;7.552;2023-06-26T03:28:40;7.55;;;5.38;;
4986;SDS011;12674;51.500;7.552;2023-06-26T03:30:54;8.90;;;5.72;;
4986;SDS011;12674;51.500;7.552;2023-06-26T03:33:39;6.70;;;5.05;;
4986;SDS011;12674;51.500;7.552;2023-06-26T03:39:01;6.35;;;5.45;;
4986;SDS011;12674;51.500;7.552;2023-06-26T03:44:00;6.07;;;5.30;;
4986;SDS011;12674;51.500;7.552;2023-06-26T03:46:23;8.77;;;4.97;;
4986;SDS011;12674;51.500;7.552;2023-06-26T03:56:01;13.13;;;6.22;;
4986;SDS011;12674;51.500;7.552;2023-06-26T03:58:12;9.15;;;5.75;;
4986;SDS011;12674;51.500;7.552;2023-06-26T04:03:05;8.40;;;5.75;;
4986;SDS011;12674;51.500;7.552;2023-06-26T04:05:09;6.80;;;5.90;;
4986;SDS011;12674;51.500;7.552;2023-06-26T04:07:51;7.88;;;5.53;;
4986;SDS011;12674;51.500;7.552;2023-06-26T04:09:45;7.20;;;5.57;;
4986;SDS011;12674;51.500;7.552;2023-06-26T04:11:48;11.82;;;5.72;;
4986;SDS011;12674;51.500;7.552;2023-06-26T04:13:53;6.07;;;5.45;;
4986;SDS011;12674;51.500;7.552;2023-06-26T04:15:57;10.40;;;5.93;;
4986;SDS011;12674;51.500;7.552;2023-06-26T04:18:32;9.95;;;5.47;;
4986;SDS011;12674;51.500;7.552;2023-06-26T04:20:39;8.25;;;5.97;;
4986;SDS011;12674;51.500;7.552;2023-06-26T04:23:16;7.93;;;5.75;;
4986;SDS011;12674;51.500;7.552;2023-06-26T04:25:36;10.00;;;5.88;;
4986;SDS011;12674;51.500;7.552;2023-06-26T04:30:24;11.68;;;6.07;;
4986;SDS011;12674;51.500;7.552;2023-06-26T04:32:29;8.23;;;5.75;;
4986;SDS011;12674;51.500;7.552;2023-06-26T04:34:34;12.63;;;5.75;;
4986;SDS011;12674;51.500;7.552;2023-06-26T04:36:38;10.60;;;5.35;;
4986;SDS011;12674;51.500;7.552;2023-06-26T04:38:49;7.05;;;5.32;;
4986;SDS011;12674;51.500;7.552;2023-06-26T04:40:52;6.28;;;4.85;;
4986;SDS011;12674;51.500;7.552;2023-06-26T04:42:59;6.38;;;5.10;;
4986;SDS011;12674;51.500;7.552;2023-06-26T04:45:02;9.32;;;5.22;;
4986;SDS011;12674;51.500;7.552;2023-06-26T04:47:20;11.68;;;5.40;;
4986;SDS011;12674;51.500;7.552;2023-06-26T04:49:24;6.35;;;5.05;;
4986;SDS011;12674;51.500;7.552;2023-06-26T04:51:33;6.68;;;5.55;;
4986;SDS011;12674;51.500;7.552;2023-06-26T04:53:42;6.43;;;5.07;;
4986;SDS011;12674;51.500;7.552;2023-06-26T04:55:50;15.30;;;6.95;;
4986;SDS011;12674;51.500;7.552;2023-06-26T04:57:54;10.43;;;5.15;;
4986;SDS011;12674;51.500;7.552;2023-06-26T04:59:57;7.20;;;5.70;;
4986;SDS011;12674;51.500;7.552;2023-06-26T05:02:00;12.38;;;5.63;;
4986;SDS011;12674;51.500;7.552;2023-06-26T05:04:04;5.75;;;5.05;;
4986;SDS011;12674;51.500;7.552;2023-06-26T05:06:07;14.90;;;6.22;;
4986;SDS011;12674;51.500;7.552;2023-06-26T05:08:13;6.18;;;5.38;;
4986;SDS011;12674;51.500;7.552;2023-06-26T05:10:17;6.00;;;4.60;;
4986;SDS011;12674;51.500;7.552;2023-06-26T05:12:20;7.05;;;5.25;;
4986;SDS011;12674;51.500;7.552;2023-06-26T05:14:23;11.50;;;5.82;;
4986;SDS011;12674;51.500;7.552;2023-06-26T05:16:26;10.20;;;5.15;;
4986;SDS011;12674;51.500;7.552;2023-06-26T05:18:30;6.60;;;5.22;;
4986;SDS011;12674;51.500;7.552;2023-06-26T05:20:34;14.07;;;5.32;;
4986;SDS011;12674;51.500;7.552;2023-06-26T05:22:39;13.98;;;6.07;;
4986;SDS011;12674;51.500;7.552;2023-06-26T05:24:47;11.10;;;6.03;;
4986;SDS011;12674;51.500;7.552;2023-06-26T05:26:51;8.88;;;5.53;;
4986;SDS011;12674;51.500;7.552;2023-06-26T05:28:55;11.68;;;5.45;;
4986;SDS011;12674;51.500;7.552;2023-06-26T05:30:58;10.20;;;5.18;;
4986;SDS011;12674;51.500;7.552;2023-06-26T05:33:03;7.32;;;5.40;;
4986;SDS011;12674;51.500;7.552;2023-06-26T05:35:07;13.40;;;5.50;;
4986;SDS011;12674;51.500;7.552;2023-06-26T05:37:12;9.43;;;5.00;;
4986;SDS011;12674;51.500;7.552;2023-06-26T05:39:18;11.32;;;5.65;;
4986;SDS011;12674;51.500;7.552;2023-06-26T05:41:22;8.13;;;5.95;;
4986;SDS011;12674;51.500;7.552;2023-06-26T05:43:25;8.32;;;5.22;;
4986;SDS011;12674;51.500;7.552;2023-06-26T05:45:32;10.27;;;5.88;;
4986;SDS011;12674;51.500;7.552;2023-06-26T05:47:37;6.97;;;5.30;;
4986;SDS011;12674;51.500;7.552;2023-06-26T05:55:34;16.42;;;6.03;;
4986;SDS011;12674;51.500;7.552;2023-06-26T06:01:08;10.05;;;5.78;;
4986;SDS011;12674;51.500;7.552;2023-06-26T06:03:15;9.10;;;5.82;;
4986;SDS011;12674;51.500;7.552;2023-06-26T06:06:14;10.65;;;5.78;;
4986;SDS011;12674;51.500;7.552;2023-06-26T06:08:21;7.78;;;6.03;;
4986;SDS011;12674;51.500;7.552;2023-06-26T06:10:26;9.10;;;5.50;;
4986;SDS011;12674;51.500;7.552;2023-06-26T06:12:29;10.18;;;6.45;;
4986;SDS011;12674;51.500;7.552;2023-06-26T06:14:53;11.15;;;5.72;;
4986;SDS011;12674;51.500;7.552;2023-06-26T06:16:58;15.48;;;6.38;;
4986;SDS011;12674;51.500;7.552;2023-06-26T06:19:08;11.75;;;6.25;;
4986;SDS011;12674;51.500;7.552;2023-06-26T06:21:14;8.80;;;5.78;;
4986;SDS011;12674;51.500;7.552;2023-06-26T06:23:19;8.25;;;6.18;;
4986;SDS011;12674;51.500;7.552;2023-06-26T06:25:23;11.90;;;6.97;;
4986;SDS011;12674;51.500;7.552;2023-06-26T06:27:38;9.05;;;6.13;;
4986;SDS011;12674;51.500;7.552;2023-06-26T06:29:43;10.60;;;6.80;;
4986;SDS011;12674;51.500;7.552;2023-06-26T06:31:46;13.23;;;7.25;;
4986;SDS011;12674;51.500;7.552;2023-06-26T06:36:26;9.77;;;6.07;;
4986;SDS011;12674;51.500;7.552;2023-06-26T06:38:30;11.45;;;5.88;;
4986;SDS011;12674;51.500;7.552;2023-06-26T06:40:37;11.35;;;7.50;;
4986;SDS011;12674;51.500;7.552;2023-06-26T06:42:43;10.40;;;6.95;;
4986;SDS011;12674;51.500;7.552;2023-06-26T06:44:46;9.63;;;6.53;;
4986;SDS011;12674;51.500;7.552;2023-06-26T06:46:52;12.68;;;6.38;;
4986;SDS011;12674;51.500;7.552;2023-06-26T06:48:56;8.43;;;6.82;;
4986;SDS011;12674;51.500;7.552;2023-06-26T06:51:02;11.02;;;6.28;;
4986;SDS011;12674;51.500;7.552;2023-06-26T06:53:09;9.57;;;6.50;;
4986;SDS011;12674;51.500;7.552;2023-06-26T06:55:17;10.55;;;6.72;;
4986;SDS011;12674;51.500;7.552;2023-06-26T06:57:21;18.35;;;6.70;;
4986;SDS011;12674;51.500;7.552;2023-06-26T06:59:27;13.35;;;6.40;;
4986;SDS011;12674;51.500;7.552;2023-06-26T07:01:32;11.20;;;5.55;;
4986;SDS011;12674;51.500;7.552;2023-06-26T07:03:41;9.73;;;6.07;;
4986;SDS011;12674;51.500;7.552;2023-06-26T07:06:06;12.68;;;6.30;;
4986;SDS011;12674;51.500;7.552;2023-06-26T07:08:09;15.02;;;6.38;;
4986;SDS011;12674;51.500;7.552;2023-06-26T07:10:13;12.45;;;5.60;;
4986;SDS011;12674;51.500;7.552;2023-06-26T07:12:18;9.05;;;5.88;;
4986;SDS011;12674;51.500;7.552;2023-06-26T07:14:21;11.07;;;6.30;;
4986;SDS011;12674;51.500;7.552;2023-06-26T07:16:28;10.43;;;5.55;;
4986;SDS011;12674;51.500;7.552;2023-06-26T07:18:36;8.43;;;5.43;;
4986;SDS011;12674;51.500;7.552;2023-06-26T07:20:40;14.77;;;6.25;;
4986;SDS011;12674;51.500;7.552;2023-06-26T07:22:44;11.93;;;6.03;;
4986;SDS011;12674;51.500;7.552;2023-06-26T07:24:47;11.95;;;4.90;;
4986;SDS011;12674;51.500;7.552;2023-06-26T07:26:50;12.15;;;5.72;;
4986;SDS011;12674;51.500;7.552;2023-06-26T07:28:53;12.48;;;5.28;;
4986;SDS011;12674;51.500;7.552;2023-06-26T07:30:58;14.68;;;5.60;;
4986;SDS011;12674;51.500;7.552;2023-06-26T07:33:06;15.35;;;5.18;;
4986;SDS011;12674;51.500;7.552;2023-06-26T07:37:41;9.40;;;5.40;;
4986;SDS011;12674;51.500;7.552;2023-06-26T07:39:49;11.23;;;4.93;;
4986;SDS011;12674;51.500;7.552;2023-06-26T07:41:53;11.93;;;5.60;;
4986;SDS011;12674;51.500;7.552;2023-06-26T07:44:02;11.50;;;5.55;;
4986;SDS011;12674;51.500;7.552;2023-06-26T07:46:06;10.60;;;5.22;;
4986;SDS011;12674;51.500;7.552;2023-06-26T07:48:12;9.80;;;4.95;;
4986;SDS011;12674;51.500;7.552;2023-06-26T07:50:15;16.25;;;5.28;;
4986;SDS011;12674;51.500;7.552;2023-06-26T07:52:31;9.45;;;5.22;;
4986;SDS011;12674;51.500;7.552;2023-06-26T07:55:04;17.27;;;6.97;;
4986;SDS011;12674;51.500;7.552;2023-06-26T07:57:14;17.23;;;6.47;;
4986;SDS011;12674;51.500;7.552;2023-06-26T07:59:30;9.52;;;4.50;;
4986;SDS011;12674;51.500;7.552;2023-06-26T08:01:43;12.77;;;5.30;;
4986;SDS011;12674;51.500;7.552;2023-06-26T08:03:57;11.32;;;5.55;;
4986;SDS011;12674;51.500;7.552;2023-06-26T08:06:00;13.65;;;5.68;;
4986;SDS011;12674;51.500;7.552;2023-06-26T08:08:05;15.40;;;6.93;;
4986;SDS011;12674;51.500;7.552;2023-06-26T08:10:10;14.75;;;5.85;;
4986;SDS011;12674;51.500;7.552;2023-06-26T08:12:24;15.07;;;5.63;;
4986;SDS011;12674;51.500;7.552;2023-06-26T08:14:27;10.32;;;5.80;;
4986;SDS011;12674;51.500;7.552;2023-06-26T08:16:33;17.23;;;5.82;;
4986;SDS011;12674;51.500;7.552;2023-06-26T08:18:36;12.32;;;5.28;;
4986;SDS011;12674;51.500;7.552;2023-06-26T08:20:41;13.50;;;6.32;;
4986;SDS011;12674;51.500;7.552;2023-06-26T08:22:48;8.15;;;4.75;;
4986;SDS011;12674;51.500;7.552;2023-06-26T08:24:56;9.38;;;5.32;;
4986;SDS011;12674;51.500;7.552;2023-06-26T08:27:00;11.40;;;6.15;;
4986;SDS011;12674;51.500;7.552;2023-06-26T08:29:03;9.48;;;5.50;;
4986;SDS011;12674;51.500;7.552;2023-06-26T08:31:13;9.35;;;5.57;;
4986;SDS011;12674;51.500;7.552;2023-06-26T08:33:17;8.30;;;5.10;;
4986;SDS011;12674;51.500;7.552;2023-06-26T08:35:21;15.10;;;6.22;;
4986;SDS011;12674;51.500;7.552;2023-06-26T08:37:28;17.08;;;6.38;;
4986;SDS011;12674;51.500;7.552;2023-06-26T08:39:37;12.55;;;6.38;;
4986;SDS011;12674;51.500;7.552;2023-06-26T08:41:40;32.35;;;6.22;;
4986;SDS011;12674;51.500;7.552;2023-06-26T08:43:44;17.77;;;6.95;;
4986;SDS011;12674;51.500;7.552;2023-06-26T08:45:49;15.10;;;7.13;;
4986;SDS011;12674;51.500;7.552;2023-06-26T08:47:55;22.05;;;7.30;;
4986;SDS011;12674;51.500;7.552;2023-06-26T08:50:04;16.73;;;7.13;;
4986;SDS011;12674;51.500;7.552;2023-06-26T08:52:16;13.57;;;6.38;;
4986;SDS011;12674;51.500;7.552;2023-06-26T08:54:36;19.63;;;6.80;;
4986;SDS011;12674;51.500;7.552;2023-06-26T08:56:43;22.00;;;7.00;;
4986;SDS011;12674;51.500;7.552;2023-06-26T08:58:50;12.32;;;6.28;;
4986;SDS011;12674;51.500;7.552;2023-06-26T09:00:53;17.48;;;6.03;;
4986;SDS011;12674;51.500;7.552;2023-06-26T09:02:58;21.42;;;5.40;;
4986;SDS011;12674;51.500;7.552;2023-06-26T09:05:02;19.08;;;6.25;;
4986;SDS011;12674;51.500;7.552;2023-06-26T09:07:06;22.65;;;7.97;;
4986;SDS011;12674;51.500;7.552;2023-06-26T09:09:11;17.52;;;8.90;;
4986;SDS011;12674;51.500;7.552;2023-06-26T09:11:16;14.13;;;7.88;;
4986;SDS011;12674;51.500;7.552;2023-06-26T09:13:21;24.90;;;8.00;;
4986;SDS011;12674;51.500;7.552;2023-06-26T09:15:36;15.52;;;6.28;;
4986;SDS011;12674;51.500;7.552;2023-06-26T09:17:41;13.95;;;6.95;;
4986;SDS011;12674;51.500;7.552;2023-06-26T09:19:45;20.27;;;7.57;;
4986;SDS011;12674;51.500;7.552;2023-06-26T09:21:49;24.33;;;9.70;;
4986;SDS011;12674;51.500;7.552;2023-06-26T09:23:53;15.88;;;9.68;;
4986;SDS011;12674;51.500;7.552;2023-06-26T09:25:56;21.67;;;9.50;;
4986;SDS011;12674;51.500;7.552;2023-06-26T09:28:02;26.52;;;8.65;;
4986;SDS011;12674;51.500;7.552;2023-06-26T09:30:06;23.55;;;8.55;;
4986;SDS011;12674;51.500;7.552;2023-06-26T09:32:11;13.48;;;7.15;;
4986;SDS011;12674;51.500;7.552;2023-06-26T09:34:15;17.13;;;8.48;;
4986;SDS011;12674;51.500;7.552;2023-06-26T09:36:23;16.02;;;8.98;;
4986;SDS011;12674;51.500;7.552;2023-06-26T09:38:30;16.95;;;8.73;;
4986;SDS011;12674;51.500;7.552;2023-06-26T09:40:33;17.70;;;8.48;;
4986;SDS011;12674;51.500;7.552;2023-06-26T09:42:40;17.80;;;8.50;;
4986;SDS011;12674;51.500;7.552;2023-06-26T09:44:45;15.85;;;8.77;;
4986;SDS011;12674;51.500;7.552;2023-06-26T09:46:49;16.65;;;7.93;;
4986;SDS011;12674;51.500;7.552;2023-06-26T09:48:57;21.58;;;8.65;;
4986;SDS011;12674;51.500;7.552;2023-06-26T09:51:04;22.00;;;8.52;;
4986;SDS011;12674;51.500;7.552;2023-06-26T09:53:15;20.70;;;8.15;;
4986;SDS011;12674;51.500;7.552;2023-06-26T09:55:20;16.13;;;7.68;;
4986;SDS011;12674;51.500;7.552;2023-06-26T09:57:24;24.20;;;7.60;;
4986;SDS011;12674;51.500;7.552;2023-06-26T09:59:27;13.80;;;7.57;;
4986;SDS011;12674;51.500;7.552;2023-06-26T10:01:32;18.65;;;6.82;;
4986;SDS011;12674;51.500;7.552;2023-06-26T10:03:36;17.55;;;6.15;;
4986;SDS011;12674;51.500;7.552;2023-06-26T10:05:42;13.38;;;5.60;;
4986;SDS011;12674;51.500;7.552;2023-06-26T10:07:46;12.80;;;5.78;;
4986;SDS011;12674;51.500;7.552;2023-06-26T10:09:53;13.77;;;5.47;;
4986;SDS011;12674;51.500;7.552;2023-06-26T10:12:00;11.68;;;4.78;;
4986;SDS011;12674;51.500;7.552;2023-06-26T10:14:07;11.35;;;5.05;;
4986;SDS011;12674;51.500;7.552;2023-06-26T10:16:21;17.15;;;5.57;;
4986;SDS011;12674;51.500;7.552;2023-06-26T10:18:30;20.67;;;5.97;;
4986;SDS011;12674;51.500;7.552;2023-06-26T10:20:35;10.30;;;5.03;;
4986;SDS011;12674;51.500;7.552;2023-06-26T10:22:40;15.70;;;5.18;;
4986;SDS011;12674;51.500;7.552;2023-06-26T10:24:47;10.43;;;3.95;;
4986;SDS011;12674;51.500;7.552;2023-06-26T10:26:58;18.23;;;4.28;;
4986;SDS011;12674;51.500;7.552;2023-06-26T10:29:04;14.98;;;4.50;;
4986;SDS011;12674;51.500;7.552;2023-06-26T10:31:12;21.85;;;4.50;;
4986;SDS011;12674;51.500;7.552;2023-06-26T10:33:18;10.63;;;4.10;;
4986;SDS011;12674;51.500;7.552;2023-06-26T10:35:25;14.43;;;3.92;;
4986;SDS011;12674;51.500;7.552;2023-06-26T10:37:43;12.48;;;3.75;;
4986;SDS011;12674;51.500;7.552;2023-06-26T10:40:00;13.00;;;4.40;;
4986;SDS011;12674;51.500;7.552;2023-06-26T10:42:08;13.02;;;3.60;;
4986;SDS011;12674;51.500;7.552;2023-06-26T10:44:15;14.45;;;4.10;;
4986;SDS011;12674;51.500;7.552;2023-06-26T10:46:20;11.60;;;4.05;;
4986;SDS011;12674;51.500;7.552;2023-06-26T10:48:31;10.73;;;3.83;;
4986;SDS011;12674;51.500;7.552;2023-06-26T10:50:50;15.02;;;4.03;;
4986;SDS011;12674;51.500;7.552;2023-06-26T10:53:13;7.93;;;3.20;;
4986;SDS011;12674;51.500;7.552;2023-06-26T10:55:27;12.15;;;3.75;;
4986;SDS011;12674;51.500;7.552;2023-06-26T10:57:33;17.80;;;3.92;;
4986;SDS011;12674;51.500;7.552;2023-06-26T10:59:39;14.93;;;4.00;;
4986;SDS011;12674;51.500;7.552;2023-06-26T11:01:44;11.13;;;4.05;;
4986;SDS011;12674;51.500;7.552;2023-06-26T11:04:04;8.85;;;3.53;;
4986;SDS011;12674;51.500;7.552;2023-06-26T11:06:14;11.10;;;3.97;;
4986;SDS011;12674;51.500;7.552;2023-06-26T11:08:18;14.20;;;3.97;;
4986;SDS011;12674;51.500;7.552;2023-06-26T11:10:24;9.38;;;3.55;;
4986;SDS011;12674;51.500;7.552;2023-06-26T11:12:36;10.00;;;3.35;;
4986;SDS011;12674;51.500;7.552;2023-06-26T11:14:40;11.70;;;3.58;;
4986;SDS011;12674;51.500;7.552;2023-06-26T11:16:44;8.55;;;3.22;;
4986;SDS011;12674;51.500;7.552;2023-06-26T11:18:47;12.82;;;3.38;;
4986;SDS011;12674;51.500;7.552;2023-06-26T11:21:03;8.15;;;3.20;;
4986;SDS011;12674;51.500;7.552;2023-06-26T11:23:09;12.57;;;2.78;;
4986;SDS011;12674;51.500;7.552;2023-06-26T11:25:13;10.88;;;3.72;;
4986;SDS011;12674;51.500;7.552;2023-06-26T11:27:18;9.15;;;3.70;;
4986;SDS011;12674;51.500;7.552;2023-06-26T11:29:25;8.38;;;2.70;;
4986;SDS011;12674;51.500;7.552;2023-06-26T11:31:28;13.73;;;4.07;;
4986;SDS011;12674;51.500;7.552;2023-06-26T11:33:34;10.63;;;3.78;;
4986;SDS011;12674;51.500;7.552;2023-06-26T11:35:38;10.73;;;3.53;;
4986;SDS011;12674;51.500;7.552;2023-06-26T11:37:42;10.70;;;3.92;;
4986;SDS011;12674;51.500;7.552;2023-06-26T11:39:47;7.47;;;3.50;;
4986;SDS011;12674;51.500;7.552;2023-06-26T11:41:52;8.02;;;3.22;;
4986;SDS011;12674;51.500;7.552;2023-06-26T11:43:56;8.50;;;3.42;;
4986;SDS011;12674;51.500;7.552;2023-06-26T11:46:05;5.22;;;3.10;;
4986;SDS011;12674;51.500;7.552;2023-06-26T11:48:09;8.50;;;3.75;;
4986;SDS011;12674;51.500;7.552;2023-06-26T11:50:14;13.95;;;3.15;;
4986;SDS011;12674;51.500;7.552;2023-06-26T11:52:18;17.63;;;4.18;;
4986;SDS011;12674;51.500;7.552;2023-06-26T11:54:30;10.77;;;3.17;;
4986;SDS011;12674;51.500;7.552;2023-06-26T11:56:38;11.18;;;3.53;;
4986;SDS011;12674;51.500;7.552;2023-06-26T11:58:57;12.45;;;3.30;;
4986;SDS011;12674;51.500;7.552;2023-06-26T12:01:04;9.32;;;3.35;;
4986;SDS011;12674;51.500;7.552;2023-06-26T12:03:07;7.05;;;2.95;;
4986;SDS011;12674;51.500;7.552;2023-06-26T12:05:11;7.03;;;2.95;;
4986;SDS011;12674;51.500;7.552;2023-06-26T12:07:15;11.00;;;3.63;;
4986;SDS011;12674;51.500;7.552;2023-06-26T12:09:20;5.18;;;2.55;;
4986;SDS011;12674;51.500;7.552;2023-06-26T12:11:27;9.45;;;2.92;;
4986;SDS011;12674;51.500;7.552;2023-06-26T12:13:37;17.05;;;2.58;;
4986;SDS011;12674;51.500;7.552;2023-06-26T12:15:40;9.38;;;2.72;;
4986;SDS011;12674;51.500;7.552;2023-06-26T12:17:44;6.07;;;2.60;;
4986;SDS011;12674;51.500;7.552;2023-06-26T12:19:47;16.58;;;2.83;;
4986;SDS011;12674;51.500;7.552;2023-06-26T12:21:52;9.40;;;2.72;;
4986;SDS011;12674;51.500;7.552;2023-06-26T12:23:58;12.90;;;3.05;;
4986;SDS011;12674;51.500;7.552;2023-06-26T12:26:17;8.60;;;2.90;;
4986;SDS011;12674;51.500;7.552;2023-06-26T12:28:23;5.85;;;2.42;;
4986;SDS011;12674;51.500;7.552;2023-06-26T12:30:29;3.13;;;2.03;;
4986;SDS011;12674;51.500;7.552;2023-06-26T12:32:34;6.75;;;2.22;;
4986;SDS011;12674;51.500;7.552;2023-06-26T12:34:38;11.15;;;2.67;;
4986;SDS011;12674;51.500;7.552;2023-06-26T12:36:42;4.55;;;2.10;;
4986;SDS011;12674;51.500;7.552;2023-06-26T12:38:48;6.05;;;2.10;;
4986;SDS011;12674;51.500;7.552;2023-06-26T12:40:56;4.88;;;2.13;;
4986;SDS011;12674;51.500;7.552;2023-06-26T12:43:02;7.47;;;2.33;;
4986;SDS011;12674;51.500;7.552;2023-06-26T12:45:10;8.95;;;2.33;;
4986;SDS011;12674;51.500;7.552;2023-06-26T12:47:33;10.20;;;2.28;;
4986;SDS011;12674;51.500;7.552;2023-06-26T12:49:40;5.28;;;2.08;;
4986;SDS011;12674;51.500;7.552;2023-06-26T12:51:44;6.65;;;2.15;;
4986;SDS011;12674;51.500;7.552;2023-06-26T12:53:49;9.88;;;2.08;;
4986;SDS011;12674;51.500;7.552;2023-06-26T12:55:53;5.88;;;1.95;;
4986;SDS011;12674;51.500;7.552;2023-06-26T12:57:57;5.78;;;1.83;;
4986;SDS011;12674;51.500;7.552;2023-06-26T13:00:01;6.05;;;1.60;;
4986;SDS011;12674;51.500;7.552;2023-06-26T13:02:06;10.98;;;2.10;;
4986;SDS011;12674;51.500;7.552;2023-06-26T13:04:14;5.70;;;2.38;;
4986;SDS011;12674;51.500;7.552;2023-06-26T13:06:17;4.90;;;1.85;;
4986;SDS011;12674;51.500;7.552;2023-06-26T13:08:21;9.52;;;2.33;;
4986;SDS011;12674;51.500;7.552;2023-06-26T13:10:25;6.32;;;1.90;;
4986;SDS011;12674;51.500;7.552;2023-06-26T13:12:30;7.85;;;2.13;;
4986;SDS011;12674;51.500;7.552;2023-06-26T13:14:34;9.27;;;1.77;;
4986;SDS011;12674;51.500;7.552;2023-06-26T13:16:37;8.82;;;2.13;;
4986;SDS011;12674;51.500;7.552;2023-06-26T13:18:41;4.32;;;1.50;;
4986;SDS011;12674;51.500;7.552;2023-06-26T13:20:46;6.20;;;1.60;;
4986;SDS011;12674;51.500;7.552;2023-06-26T13:22:50;5.20;;;1.27;;
4986;SDS011;12674;51.500;7.552;2023-06-26T13:24:55;10.25;;;1.50;;
4986;SDS011;12674;51.500;7.552;2023-06-26T13:27:13;13.23;;;1.73;;
4986;SDS011;12674;51.500;7.552;2023-06-26T13:29:18;9.60;;;1.83;;
4986;SDS011;12674;51.500;7.552;2023-06-26T13:31:21;6.00;;;1.88;;
4986;SDS011;12674;51.500;7.552;2023-06-26T13:33:25;5.53;;;1.63;;